METAR AND TAF INFORMATION
METAR FOR EPKK
ADDS - METARS form results

(1736 UTC 20 May 2019)
Data provider http://aviationweather.gov/metar/data/
 
METAR text: EPKK 201730Z VRB01KT 9999 FEW060 22/11 Q1004
Conditions at: EPKK (KRAKOW/BALICE , PL) observed 1730 UTC 20 May 2019
Temperature: 22.0°C (72°F)
Dewpoint: 11.0°C (52°F) [RH = 50%]
Pressure (altimeter): 29.65 inches Hg (1004.0 mb)
Winds: variable direction winds at 1 MPH (1 knots; 0.5 m/s)
Visibility: 6 or more miles (10+ km)
Ceiling: at least 12,000 feet AGL
Clouds: few clouds at 6000 feet AGL
Weather: no significant weather observed at this time

METAR text: EPKK 201700Z VRB02KT 9999 FEW060 21/09 Q1004
Conditions at: EPKK (KRAKOW/BALICE , PL) observed 1700 UTC 20 May 2019
Temperature: 21.0°C (70°F)
Dewpoint: 9.0°C (48°F) [RH = 46%]
Pressure (altimeter): 29.65 inches Hg (1004.0 mb)
Winds: variable direction winds at 2 MPH (2 knots; 1.0 m/s)
Visibility: 6 or more miles (10+ km)
Ceiling: at least 12,000 feet AGL
Clouds: few clouds at 6000 feet AGL
Weather: no significant weather observed at this time

Forecast for: EPKK (KRAKOW/BALICE , PL)
Text: TAF EPKK 201730Z 2018/2118 23006KT 9999 SCT040
Forecast period: 1800 UTC 20 May 2019 to 1800 UTC 21 May 2019
Forecast type: FROM: standard forecast or significant change
Winds: from the SW (230 degrees) at 7 MPH (6 knots; 3.1 m/s)
Visibility: 6 or more miles 10+ km)
Ceiling: at least 12,000 feet AGL
Clouds: scattered clouds at 4000 feet AGL
Weather: no significant weather forecast for this period
Text: TEMPO 2102/2105 4000 BR BKN007
Forecast period: 0200 to 0500 UTC 21 May 2019
Forecast type: TEMPORARY: The following changes expected for less than half the time period
Visibility: 2.49 miles (4.01 km)
Ceiling: 700 feet AGL
Clouds: broken clouds at 700 feet AGL
Weather: BR  (mist)
Text: PROB30
Forecast period: 1100 to 1800 UTC 21 May 2019
Forecast type: TEMPORARY: The following changes expected for less than half the time period
Visibility: 2.49 miles (4.01 km)
Ceiling: 1400 feet AGL
Clouds: broken clouds at 1400 feet AGL
Weather: TSRA  (rain associated with thunderstorm(s))

 AIRPORT MAP

 RUNWAY INFORMATION
Runway 07 Runway length 8366 ft Runway width 197 ft
Runway elevation 792 ft Runway displaced threshold 0 ft Runway heading 78
Runway 25 Runway length 8366 ft Runway width 197 ft
Runway elevation 779 ft Runway displaced threshold 784 ft Runway heading 258

 AIRPORT FREQUENCIES
Type APP Name KRAKOW APP Frequency 121.075 MHZ
Type ATIS Name ATIS Frequency 126.125 MHZ
Type DIR Name KRAKOW DIR Frequency 123.8 MHZ
Type TWR Name KRAKOW DEL Frequency 118.1 MHZ
Type TWR Name KRAKOW TWR Frequency 123.25 MHZ

 AIRPORT NEAR NAVIGATION AIDS
Type NDB Name Krakow Frequency 353 KHZ



Powered by Virtual Airlines Manager [v2.6.2]